sensor_id;sensor_type;location;lat;lon;timestamp;P1;durP1;ratioP1;P2;durP2;ratioP2
39190;SDS011;24916;51.676;6.614;2023-02-28T00:02:22;9.75;;;5.03;;
39190;SDS011;24916;51.676;6.614;2023-02-28T00:04:47;6.07;;;3.90;;
39190;SDS011;24916;51.676;6.614;2023-02-28T00:07:18;7.60;;;4.20;;
39190;SDS011;24916;51.676;6.614;2023-02-28T00:09:43;6.47;;;3.80;;
39190;SDS011;24916;51.676;6.614;2023-02-28T00:12:08;5.38;;;3.70;;
39190;SDS011;24916;51.676;6.614;2023-02-28T00:14:35;7.70;;;3.95;;
39190;SDS011;24916;51.676;6.614;2023-02-28T00:17:00;7.07;;;4.65;;
39190;SDS011;24916;51.676;6.614;2023-02-28T00:19:25;12.25;;;4.43;;
39190;SDS011;24916;51.676;6.614;2023-02-28T00:21:50;8.27;;;4.20;;
39190;SDS011;24916;51.676;6.614;2023-02-28T00:24:16;10.25;;;4.40;;
39190;SDS011;24916;51.676;6.614;2023-02-28T00:26:41;7.93;;;4.75;;
39190;SDS011;24916;51.676;6.614;2023-02-28T00:29:06;9.77;;;4.75;;
39190;SDS011;24916;51.676;6.614;2023-02-28T00:31:31;10.23;;;5.55;;
39190;SDS011;24916;51.676;6.614;2023-02-28T00:33:56;9.75;;;4.68;;
39190;SDS011;24916;51.676;6.614;2023-02-28T00:36:23;8.55;;;4.95;;
39190;SDS011;24916;51.676;6.614;2023-02-28T00:38:48;10.45;;;5.53;;
39190;SDS011;24916;51.676;6.614;2023-02-28T00:41:13;8.98;;;5.00;;
39190;SDS011;24916;51.676;6.614;2023-02-28T00:43:39;8.68;;;4.90;;
39190;SDS011;24916;51.676;6.614;2023-02-28T00:46:04;10.18;;;5.35;;
39190;SDS011;24916;51.676;6.614;2023-02-28T00:48:30;9.32;;;4.80;;
39190;SDS011;24916;51.676;6.614;2023-02-28T00:50:55;11.68;;;4.53;;
39190;SDS011;24916;51.676;6.614;2023-02-28T00:53:20;7.78;;;5.05;;
39190;SDS011;24916;51.676;6.614;2023-02-28T00:55:45;9.35;;;4.75;;
39190;SDS011;24916;51.676;6.614;2023-02-28T00:58:11;6.55;;;4.93;;
39190;SDS011;24916;51.676;6.614;2023-02-28T01:00:36;8.35;;;4.85;;
39190;SDS011;24916;51.676;6.614;2023-02-28T01:03:01;10.93;;;5.30;;
39190;SDS011;24916;51.676;6.614;2023-02-28T01:05:26;8.80;;;5.70;;
39190;SDS011;24916;51.676;6.614;2023-02-28T01:07:52;9.48;;;5.95;;
39190;SDS011;24916;51.676;6.614;2023-02-28T01:10:17;11.50;;;6.72;;
39190;SDS011;24916;51.676;6.614;2023-02-28T01:12:42;10.52;;;6.10;;
39190;SDS011;24916;51.676;6.614;2023-02-28T01:15:09;9.35;;;5.40;;
39190;SDS011;24916;51.676;6.614;2023-02-28T01:17:35;13.27;;;5.38;;
39190;SDS011;24916;51.676;6.614;2023-02-28T01:20:00;10.93;;;5.60;;
39190;SDS011;24916;51.676;6.614;2023-02-28T01:22:26;10.20;;;5.22;;
39190;SDS011;24916;51.676;6.614;2023-02-28T01:24:51;11.32;;;5.00;;
39190;SDS011;24916;51.676;6.614;2023-02-28T01:27:16;9.55;;;5.05;;
39190;SDS011;24916;51.676;6.614;2023-02-28T01:29:41;14.75;;;6.20;;
39190;SDS011;24916;51.676;6.614;2023-02-28T01:32:07;9.15;;;5.50;;
39190;SDS011;24916;51.676;6.614;2023-02-28T01:34:32;10.55;;;5.30;;
39190;SDS011;24916;51.676;6.614;2023-02-28T01:36:57;12.90;;;5.90;;
39190;SDS011;24916;51.676;6.614;2023-02-28T01:39:23;9.68;;;5.47;;
39190;SDS011;24916;51.676;6.614;2023-02-28T01:41:49;12.80;;;5.20;;
39190;SDS011;24916;51.676;6.614;2023-02-28T01:46:58;6.60;;;4.78;;
39190;SDS011;24916;51.676;6.614;2023-02-28T01:49:23;11.57;;;4.78;;
39190;SDS011;24916;51.676;6.614;2023-02-28T01:51:49;8.07;;;4.40;;
39190;SDS011;24916;51.676;6.614;2023-02-28T01:54:18;8.07;;;4.28;;
39190;SDS011;24916;51.676;6.614;2023-02-28T01:56:52;6.18;;;4.10;;
39190;SDS011;24916;51.676;6.614;2023-02-28T01:59:22;7.72;;;4.50;;
39190;SDS011;24916;51.676;6.614;2023-02-28T02:01:48;10.90;;;4.18;;
39190;SDS011;24916;51.676;6.614;2023-02-28T02:04:14;7.88;;;4.28;;
39190;SDS011;24916;51.676;6.614;2023-02-28T02:06:43;9.70;;;4.72;;
39190;SDS011;24916;51.676;6.614;2023-02-28T02:09:09;10.63;;;4.43;;
39190;SDS011;24916;51.676;6.614;2023-02-28T02:11:34;6.55;;;4.18;;
39190;SDS011;24916;51.676;6.614;2023-02-28T02:24:16;7.80;;;4.43;;
39190;SDS011;24916;51.676;6.614;2023-02-28T02:34:56;8.63;;;4.53;;
39190;SDS011;24916;51.676;6.614;2023-02-28T02:42:42;11.02;;;4.25;;
39190;SDS011;24916;51.676;6.614;2023-02-28T02:45:16;12.40;;;4.68;;
39190;SDS011;24916;51.676;6.614;2023-02-28T02:47:43;7.60;;;4.40;;
39190;SDS011;24916;51.676;6.614;2023-02-28T02:50:12;7.80;;;4.93;;
39190;SDS011;24916;51.676;6.614;2023-02-28T02:52:40;9.02;;;4.85;;
39190;SDS011;24916;51.676;6.614;2023-02-28T02:55:06;9.40;;;4.90;;
39190;SDS011;24916;51.676;6.614;2023-02-28T02:57:36;8.40;;;4.35;;
39190;SDS011;24916;51.676;6.614;2023-02-28T03:00:04;10.07;;;4.63;;
39190;SDS011;24916;51.676;6.614;2023-02-28T03:02:33;7.65;;;3.92;;
39190;SDS011;24916;51.676;6.614;2023-02-28T03:05:00;9.13;;;4.05;;
39190;SDS011;24916;51.676;6.614;2023-02-28T03:07:26;6.97;;;3.53;;
39190;SDS011;24916;51.676;6.614;2023-02-28T03:09:52;9.40;;;3.28;;
39190;SDS011;24916;51.676;6.614;2023-02-28T03:12:18;11.15;;;4.07;;
39190;SDS011;24916;51.676;6.614;2023-02-28T03:15:07;10.98;;;3.72;;
39190;SDS011;24916;51.676;6.614;2023-02-28T03:20:15;7.03;;;3.10;;
39190;SDS011;24916;51.676;6.614;2023-02-28T03:30:51;9.02;;;3.55;;
39190;SDS011;24916;51.676;6.614;2023-02-28T03:33:20;7.88;;;4.07;;
39190;SDS011;24916;51.676;6.614;2023-02-28T03:36:02;9.00;;;4.00;;
39190;SDS011;24916;51.676;6.614;2023-02-28T03:41:22;7.03;;;4.05;;
39190;SDS011;24916;51.676;6.614;2023-02-28T03:43:55;9.35;;;3.65;;
39190;SDS011;24916;51.676;6.614;2023-02-28T03:46:23;7.35;;;3.80;;
39190;SDS011;24916;51.676;6.614;2023-02-28T03:48:55;7.72;;;4.13;;
39190;SDS011;24916;51.676;6.614;2023-02-28T03:51:21;7.80;;;4.45;;
39190;SDS011;24916;51.676;6.614;2023-02-28T03:53:50;9.23;;;4.10;;
39190;SDS011;24916;51.676;6.614;2023-02-28T03:56:17;8.63;;;3.90;;
39190;SDS011;24916;51.676;6.614;2023-02-28T04:01:12;12.95;;;4.38;;
39190;SDS011;24916;51.676;6.614;2023-02-28T04:03:39;10.20;;;4.38;;
39190;SDS011;24916;51.676;6.614;2023-02-28T04:06:12;5.32;;;3.60;;
39190;SDS011;24916;51.676;6.614;2023-02-28T04:08:38;9.23;;;3.95;;
39190;SDS011;24916;51.676;6.614;2023-02-28T04:11:05;11.52;;;4.85;;
39190;SDS011;24916;51.676;6.614;2023-02-28T04:13:31;5.93;;;3.97;;
39190;SDS011;24916;51.676;6.614;2023-02-28T04:15:57;6.20;;;3.60;;
39190;SDS011;24916;51.676;6.614;2023-02-28T04:18:22;7.60;;;3.63;;
39190;SDS011;24916;51.676;6.614;2023-02-28T04:20:47;7.38;;;3.80;;
39190;SDS011;24916;51.676;6.614;2023-02-28T04:23:12;4.47;;;3.40;;
39190;SDS011;24916;51.676;6.614;2023-02-28T04:25:38;5.47;;;3.28;;
39190;SDS011;24916;51.676;6.614;2023-02-28T04:28:05;9.23;;;3.90;;
39190;SDS011;24916;51.676;6.614;2023-02-28T04:30:30;7.75;;;4.28;;
39190;SDS011;24916;51.676;6.614;2023-02-28T04:32:57;5.63;;;3.28;;
39190;SDS011;24916;51.676;6.614;2023-02-28T04:35:22;10.80;;;4.18;;
39190;SDS011;24916;51.676;6.614;2023-02-28T04:37:47;7.75;;;4.07;;
39190;SDS011;24916;51.676;6.614;2023-02-28T04:40:13;6.65;;;3.75;;
39190;SDS011;24916;51.676;6.614;2023-02-28T04:42:38;7.07;;;3.75;;
39190;SDS011;24916;51.676;6.614;2023-02-28T04:45:03;8.25;;;4.05;;
39190;SDS011;24916;51.676;6.614;2023-02-28T04:47:29;6.88;;;3.80;;
39190;SDS011;24916;51.676;6.614;2023-02-28T04:49:54;7.57;;;3.88;;
39190;SDS011;24916;51.676;6.614;2023-02-28T04:52:19;6.20;;;3.75;;
39190;SDS011;24916;51.676;6.614;2023-02-28T04:54:44;7.38;;;3.78;;
39190;SDS011;24916;51.676;6.614;2023-02-28T04:57:09;6.28;;;3.45;;
39190;SDS011;24916;51.676;6.614;2023-02-28T04:59:35;7.40;;;3.97;;
39190;SDS011;24916;51.676;6.614;2023-02-28T05:02:00;9.60;;;4.07;;
39190;SDS011;24916;51.676;6.614;2023-02-28T05:04:25;10.93;;;3.72;;
39190;SDS011;24916;51.676;6.614;2023-02-28T05:06:50;5.63;;;3.70;;
39190;SDS011;24916;51.676;6.614;2023-02-28T05:09:15;7.32;;;4.10;;
39190;SDS011;24916;51.676;6.614;2023-02-28T05:11:41;6.85;;;3.95;;
39190;SDS011;24916;51.676;6.614;2023-02-28T05:14:11;5.82;;;3.47;;
39190;SDS011;24916;51.676;6.614;2023-02-28T05:16:36;4.65;;;2.95;;
39190;SDS011;24916;51.676;6.614;2023-02-28T05:19:01;6.45;;;3.95;;
39190;SDS011;24916;51.676;6.614;2023-02-28T05:23:55;8.48;;;3.80;;
39190;SDS011;24916;51.676;6.614;2023-02-28T05:26:21;9.18;;;3.95;;
39190;SDS011;24916;51.676;6.614;2023-02-28T05:28:47;6.32;;;3.83;;
39190;SDS011;24916;51.676;6.614;2023-02-28T05:31:12;7.18;;;4.07;;
39190;SDS011;24916;51.676;6.614;2023-02-28T05:33:38;6.72;;;3.88;;
39190;SDS011;24916;51.676;6.614;2023-02-28T05:36:04;8.35;;;4.53;;
39190;SDS011;24916;51.676;6.614;2023-02-28T05:38:29;6.85;;;4.20;;
39190;SDS011;24916;51.676;6.614;2023-02-28T05:40:55;6.53;;;4.22;;
39190;SDS011;24916;51.676;6.614;2023-02-28T05:43:21;7.55;;;4.38;;
39190;SDS011;24916;51.676;6.614;2023-02-28T05:45:46;5.15;;;4.10;;
39190;SDS011;24916;51.676;6.614;2023-02-28T05:48:11;8.25;;;4.95;;
39190;SDS011;24916;51.676;6.614;2023-02-28T05:50:36;7.97;;;4.50;;
39190;SDS011;24916;51.676;6.614;2023-02-28T05:53:02;10.90;;;4.43;;
39190;SDS011;24916;51.676;6.614;2023-02-28T05:55:28;5.43;;;3.83;;
39190;SDS011;24916;51.676;6.614;2023-02-28T05:57:53;8.00;;;4.15;;
39190;SDS011;24916;51.676;6.614;2023-02-28T06:00:18;5.55;;;3.35;;
39190;SDS011;24916;51.676;6.614;2023-02-28T06:02:44;10.07;;;4.03;;
39190;SDS011;24916;51.676;6.614;2023-02-28T06:05:17;6.97;;;3.70;;
39190;SDS011;24916;51.676;6.614;2023-02-28T06:07:42;11.57;;;3.47;;
39190;SDS011;24916;51.676;6.614;2023-02-28T06:10:08;7.38;;;3.65;;
39190;SDS011;24916;51.676;6.614;2023-02-28T06:12:34;7.38;;;3.55;;
39190;SDS011;24916;51.676;6.614;2023-02-28T06:14:59;5.78;;;3.55;;
39190;SDS011;24916;51.676;6.614;2023-02-28T06:17:24;7.65;;;3.78;;
39190;SDS011;24916;51.676;6.614;2023-02-28T06:19:50;7.88;;;3.67;;
39190;SDS011;24916;51.676;6.614;2023-02-28T06:22:15;6.82;;;4.03;;
39190;SDS011;24916;51.676;6.614;2023-02-28T06:24:40;5.97;;;3.70;;
39190;SDS011;24916;51.676;6.614;2023-02-28T06:27:05;5.57;;;3.65;;
39190;SDS011;24916;51.676;6.614;2023-02-28T06:29:31;5.88;;;3.33;;
39190;SDS011;24916;51.676;6.614;2023-02-28T06:31:57;9.13;;;4.40;;
39190;SDS011;24916;51.676;6.614;2023-02-28T06:34:22;7.53;;;4.20;;
39190;SDS011;24916;51.676;6.614;2023-02-28T06:36:49;7.35;;;4.03;;
39190;SDS011;24916;51.676;6.614;2023-02-28T06:39:15;8.85;;;4.40;;
39190;SDS011;24916;51.676;6.614;2023-02-28T06:41:40;6.03;;;3.60;;
39190;SDS011;24916;51.676;6.614;2023-02-28T06:44:05;7.45;;;4.25;;
39190;SDS011;24916;51.676;6.614;2023-02-28T06:46:35;7.20;;;4.28;;
39190;SDS011;24916;51.676;6.614;2023-02-28T06:49:01;5.20;;;4.07;;
39190;SDS011;24916;51.676;6.614;2023-02-28T06:51:26;6.72;;;4.10;;
39190;SDS011;24916;51.676;6.614;2023-02-28T06:53:52;7.38;;;4.03;;
39190;SDS011;24916;51.676;6.614;2023-02-28T06:56:17;7.38;;;3.75;;
39190;SDS011;24916;51.676;6.614;2023-02-28T06:58:46;12.70;;;4.50;;
39190;SDS011;24916;51.676;6.614;2023-02-28T07:01:13;5.57;;;3.65;;
39190;SDS011;24916;51.676;6.614;2023-02-28T07:03:38;9.27;;;4.00;;
39190;SDS011;24916;51.676;6.614;2023-02-28T07:06:04;13.90;;;5.43;;
39190;SDS011;24916;51.676;6.614;2023-02-28T07:08:29;7.93;;;4.82;;
39190;SDS011;24916;51.676;6.614;2023-02-28T07:10:56;17.58;;;5.35;;
39190;SDS011;24916;51.676;6.614;2023-02-28T07:13:22;12.63;;;5.93;;
39190;SDS011;24916;51.676;6.614;2023-02-28T07:15:58;9.13;;;4.93;;
39190;SDS011;24916;51.676;6.614;2023-02-28T07:18:23;9.20;;;4.70;;
39190;SDS011;24916;51.676;6.614;2023-02-28T07:20:49;9.45;;;4.40;;
39190;SDS011;24916;51.676;6.614;2023-02-28T07:23:14;9.88;;;5.03;;
39190;SDS011;24916;51.676;6.614;2023-02-28T07:25:39;5.97;;;3.95;;
39190;SDS011;24916;51.676;6.614;2023-02-28T07:28:05;14.55;;;4.45;;
39190;SDS011;24916;51.676;6.614;2023-02-28T07:30:30;4.18;;;3.28;;
39190;SDS011;24916;51.676;6.614;2023-02-28T07:32:55;8.60;;;3.45;;
39190;SDS011;24916;51.676;6.614;2023-02-28T07:35:21;7.35;;;3.05;;
39190;SDS011;24916;51.676;6.614;2023-02-28T07:37:46;7.20;;;3.85;;
39190;SDS011;24916;51.676;6.614;2023-02-28T07:40:12;7.13;;;3.17;;
39190;SDS011;24916;51.676;6.614;2023-02-28T07:42:38;4.32;;;2.92;;
39190;SDS011;24916;51.676;6.614;2023-02-28T07:45:04;6.03;;;3.13;;
39190;SDS011;24916;51.676;6.614;2023-02-28T07:47:29;6.97;;;3.38;;
39190;SDS011;24916;51.676;6.614;2023-02-28T07:49:55;4.90;;;2.97;;
39190;SDS011;24916;51.676;6.614;2023-02-28T07:52:20;4.95;;;3.03;;
39190;SDS011;24916;51.676;6.614;2023-02-28T07:54:45;5.85;;;3.67;;
39190;SDS011;24916;51.676;6.614;2023-02-28T07:57:10;5.85;;;3.17;;
39190;SDS011;24916;51.676;6.614;2023-02-28T07:59:36;4.85;;;2.90;;
39190;SDS011;24916;51.676;6.614;2023-02-28T08:02:02;6.68;;;3.10;;
39190;SDS011;24916;51.676;6.614;2023-02-28T08:04:27;5.95;;;3.20;;
39190;SDS011;24916;51.676;6.614;2023-02-28T08:06:53;4.03;;;3.00;;
39190;SDS011;24916;51.676;6.614;2023-02-28T08:09:19;3.70;;;2.70;;
39190;SDS011;24916;51.676;6.614;2023-02-28T08:11:44;9.70;;;3.38;;
39190;SDS011;24916;51.676;6.614;2023-02-28T08:14:09;6.05;;;2.83;;
39190;SDS011;24916;51.676;6.614;2023-02-28T08:16:34;5.60;;;2.88;;
39190;SDS011;24916;51.676;6.614;2023-02-28T08:19:00;4.55;;;2.42;;
39190;SDS011;24916;51.676;6.614;2023-02-28T08:21:25;4.30;;;2.78;;
39190;SDS011;24916;51.676;6.614;2023-02-28T08:23:50;6.13;;;2.90;;
39190;SDS011;24916;51.676;6.614;2023-02-28T08:26:16;4.88;;;2.60;;
39190;SDS011;24916;51.676;6.614;2023-02-28T08:28:42;4.95;;;2.95;;
39190;SDS011;24916;51.676;6.614;2023-02-28T08:31:10;5.65;;;2.97;;
39190;SDS011;24916;51.676;6.614;2023-02-28T08:33:36;5.50;;;2.85;;
39190;SDS011;24916;51.676;6.614;2023-02-28T08:36:02;4.18;;;2.50;;
39190;SDS011;24916;51.676;6.614;2023-02-28T08:38:27;6.70;;;2.67;;
39190;SDS011;24916;51.676;6.614;2023-02-28T08:41:02;6.78;;;2.33;;
39190;SDS011;24916;51.676;6.614;2023-02-28T08:43:28;4.47;;;2.45;;
39190;SDS011;24916;51.676;6.614;2023-02-28T08:45:54;7.68;;;2.88;;
39190;SDS011;24916;51.676;6.614;2023-02-28T08:48:22;4.63;;;2.95;;
39190;SDS011;24916;51.676;6.614;2023-02-28T08:51:00;7.97;;;3.05;;
39190;SDS011;24916;51.676;6.614;2023-02-28T08:53:26;5.13;;;2.55;;
39190;SDS011;24916;51.676;6.614;2023-02-28T08:58:23;4.18;;;2.08;;
39190;SDS011;24916;51.676;6.614;2023-02-28T09:00:48;6.80;;;2.30;;
39190;SDS011;24916;51.676;6.614;2023-02-28T09:03:13;5.55;;;2.85;;
39190;SDS011;24916;51.676;6.614;2023-02-28T09:05:38;4.38;;;2.60;;
39190;SDS011;24916;51.676;6.614;2023-02-28T09:08:03;3.92;;;2.10;;
39190;SDS011;24916;51.676;6.614;2023-02-28T09:10:29;3.45;;;2.10;;
39190;SDS011;24916;51.676;6.614;2023-02-28T09:12:54;4.55;;;2.40;;
39190;SDS011;24916;51.676;6.614;2023-02-28T09:15:19;2.13;;;1.52;;
39190;SDS011;24916;51.676;6.614;2023-02-28T09:17:44;4.10;;;1.98;;
39190;SDS011;24916;51.676;6.614;2023-02-28T09:20:10;3.97;;;1.80;;
39190;SDS011;24916;51.676;6.614;2023-02-28T09:22:35;3.63;;;1.70;;
39190;SDS011;24916;51.676;6.614;2023-02-28T09:25:01;3.03;;;1.73;;
39190;SDS011;24916;51.676;6.614;2023-02-28T09:27:26;3.80;;;2.13;;
39190;SDS011;24916;51.676;6.614;2023-02-28T09:29:51;4.43;;;2.15;;
39190;SDS011;24916;51.676;6.614;2023-02-28T09:32:16;3.03;;;1.50;;
39190;SDS011;24916;51.676;6.614;2023-02-28T09:34:43;2.40;;;1.45;;
39190;SDS011;24916;51.676;6.614;2023-02-28T09:37:08;2.15;;;1.33;;
39190;SDS011;24916;51.676;6.614;2023-02-28T09:39:33;1.55;;;1.05;;
39190;SDS011;24916;51.676;6.614;2023-02-28T09:41:58;2.80;;;1.20;;
39190;SDS011;24916;51.676;6.614;2023-02-28T09:44:37;1.88;;;1.00;;
39190;SDS011;24916;51.676;6.614;2023-02-28T09:47:14;2.20;;;1.38;;
39190;SDS011;24916;51.676;6.614;2023-02-28T09:49:42;3.28;;;1.20;;
39190;SDS011;24916;51.676;6.614;2023-02-28T09:52:21;1.88;;;1.00;;
39190;SDS011;24916;51.676;6.614;2023-02-28T09:54:48;2.00;;;1.10;;
39190;SDS011;24916;51.676;6.614;2023-02-28T09:59:49;3.03;;;1.37;;
39190;SDS011;24916;51.676;6.614;2023-02-28T10:09:53;8.05;;;1.10;;
39190;SDS011;24916;51.676;6.614;2023-02-28T10:12:18;2.85;;;1.30;;
39190;SDS011;24916;51.676;6.614;2023-02-28T10:14:45;1.48;;;0.85;;
39190;SDS011;24916;51.676;6.614;2023-02-28T10:19:47;6.75;;;1.17;;
39190;SDS011;24916;51.676;6.614;2023-02-28T10:25:00;2.40;;;1.25;;
39190;SDS011;24916;51.676;6.614;2023-02-28T10:27:31;1.80;;;1.00;;
39190;SDS011;24916;51.676;6.614;2023-02-28T10:29:57;9.32;;;1.00;;
39190;SDS011;24916;51.676;6.614;2023-02-28T10:32:25;0.90;;;0.70;;
39190;SDS011;24916;51.676;6.614;2023-02-28T10:35:00;3.33;;;1.30;;
39190;SDS011;24916;51.676;6.614;2023-02-28T10:37:26;1.83;;;1.27;;
39190;SDS011;24916;51.676;6.614;2023-02-28T10:39:52;1.77;;;1.00;;
39190;SDS011;24916;51.676;6.614;2023-02-28T10:42:24;5.53;;;1.15;;
39190;SDS011;24916;51.676;6.614;2023-02-28T10:47:31;34.00;;;2.28;;
39190;SDS011;24916;51.676;6.614;2023-02-28T10:49:57;3.30;;;1.10;;
39190;SDS011;24916;51.676;6.614;2023-02-28T10:52:33;0.98;;;0.65;;
39190;SDS011;24916;51.676;6.614;2023-02-28T10:55:15;3.35;;;1.00;;
39190;SDS011;24916;51.676;6.614;2023-02-28T10:57:41;1.10;;;0.75;;
39190;SDS011;24916;51.676;6.614;2023-02-28T11:00:12;2.40;;;1.02;;
39190;SDS011;24916;51.676;6.614;2023-02-28T11:02:38;1.95;;;1.08;;
39190;SDS011;24916;51.676;6.614;2023-02-28T11:05:40;3.28;;;1.58;;
39190;SDS011;24916;51.676;6.614;2023-02-28T11:08:15;2.60;;;1.50;;
39190;SDS011;24916;51.676;6.614;2023-02-28T11:10:44;1.63;;;1.20;;
39190;SDS011;24916;51.676;6.614;2023-02-28T11:13:16;3.88;;;1.10;;
39190;SDS011;24916;51.676;6.614;2023-02-28T11:15:43;1.38;;;1.00;;
39190;SDS011;24916;51.676;6.614;2023-02-28T11:18:20;2.28;;;0.93;;
39190;SDS011;24916;51.676;6.614;2023-02-28T11:20:50;2.75;;;1.52;;
39190;SDS011;24916;51.676;6.614;2023-02-28T11:23:16;2.40;;;1.38;;
39190;SDS011;24916;51.676;6.614;2023-02-28T11:25:46;4.80;;;1.45;;
39190;SDS011;24916;51.676;6.614;2023-02-28T11:28:27;1.67;;;0.90;;
39190;SDS011;24916;51.676;6.614;2023-02-28T11:31:26;1.58;;;1.10;;
39190;SDS011;24916;51.676;6.614;2023-02-28T11:36:21;1.77;;;1.07;;
39190;SDS011;24916;51.676;6.614;2023-02-28T11:38:50;1.77;;;1.00;;
39190;SDS011;24916;51.676;6.614;2023-02-28T11:49:07;1.73;;;1.13;;
39190;SDS011;24916;51.676;6.614;2023-02-28T11:51:49;2.67;;;1.05;;
39190;SDS011;24916;51.676;6.614;2023-02-28T11:54:21;2.72;;;1.20;;
39190;SDS011;24916;51.676;6.614;2023-02-28T11:56:52;2.03;;;1.25;;
39190;SDS011;24916;51.676;6.614;2023-02-28T12:01:56;3.08;;;1.50;;
39190;SDS011;24916;51.676;6.614;2023-02-28T12:04:46;3.22;;;1.45;;
39190;SDS011;24916;51.676;6.614;2023-02-28T12:12:21;1.95;;;1.38;;
39190;SDS011;24916;51.676;6.614;2023-02-28T12:15:05;2.05;;;1.25;;
39190;SDS011;24916;51.676;6.614;2023-02-28T12:25:43;2.20;;;1.30;;
39190;SDS011;24916;51.676;6.614;2023-02-28T12:28:12;2.83;;;1.38;;
39190;SDS011;24916;51.676;6.614;2023-02-28T12:30:41;2.10;;;1.40;;
39190;SDS011;24916;51.676;6.614;2023-02-28T12:33:09;1.67;;;1.20;;
39190;SDS011;24916;51.676;6.614;2023-02-28T12:35:37;2.03;;;1.00;;
39190;SDS011;24916;51.676;6.614;2023-02-28T12:38:13;2.80;;;1.17;;
39190;SDS011;24916;51.676;6.614;2023-02-28T12:40:43;3.22;;;2.05;;
39190;SDS011;24916;51.676;6.614;2023-02-28T12:43:09;5.97;;;3.85;;
39190;SDS011;24916;51.676;6.614;2023-02-28T12:50:58;6.40;;;2.77;;
39190;SDS011;24916;51.676;6.614;2023-02-28T13:04:05;2.75;;;1.52;;
39190;SDS011;24916;51.676;6.614;2023-02-28T13:09:16;3.05;;;1.40;;
39190;SDS011;24916;51.676;6.614;2023-02-28T13:11:48;3.50;;;1.63;;
39190;SDS011;24916;51.676;6.614;2023-02-28T13:19:22;3.60;;;1.58;;
39190;SDS011;24916;51.676;6.614;2023-02-28T13:21:48;6.72;;;1.70;;
39190;SDS011;24916;51.676;6.614;2023-02-28T13:29:39;3.78;;;1.38;;
39190;SDS011;24916;51.676;6.614;2023-02-28T13:34:38;1.33;;;0.98;;
39190;SDS011;24916;51.676;6.614;2023-02-28T13:37:30;2.00;;;1.23;;
39190;SDS011;24916;51.676;6.614;2023-02-28T13:47:41;1.90;;;1.43;;
39190;SDS011;24916;51.676;6.614;2023-02-28T13:57:57;2.03;;;1.33;;
39190;SDS011;24916;51.676;6.614;2023-02-28T14:00:42;2.63;;;1.52;;
39190;SDS011;24916;51.676;6.614;2023-02-28T14:03:12;7.70;;;1.52;;
39190;SDS011;24916;51.676;6.614;2023-02-28T14:05:40;4.30;;;1.40;;
39190;SDS011;24916;51.676;6.614;2023-02-28T14:08:08;3.53;;;1.30;;
39190;SDS011;24916;51.676;6.614;2023-02-28T14:10:45;3.00;;;1.15;;
39190;SDS011;24916;51.676;6.614;2023-02-28T14:15:55;2.63;;;1.15;;
39190;SDS011;24916;51.676;6.614;2023-02-28T14:18:25;2.38;;;1.25;;
39190;SDS011;24916;51.676;6.614;2023-02-28T14:20:54;5.55;;;1.48;;
39190;SDS011;24916;51.676;6.614;2023-02-28T14:26:07;1.88;;;1.20;;
39190;SDS011;24916;51.676;6.614;2023-02-28T14:31:13;2.35;;;1.10;;
39190;SDS011;24916;51.676;6.614;2023-02-28T14:36:26;5.77;;;3.33;;
39190;SDS011;24916;51.676;6.614;2023-02-28T14:41:20;2.40;;;1.50;;
39190;SDS011;24916;51.676;6.614;2023-02-28T14:43:50;2.40;;;1.30;;
39190;SDS011;24916;51.676;6.614;2023-02-28T14:46:15;6.85;;;1.80;;
39190;SDS011;24916;51.676;6.614;2023-02-28T14:48:41;2.95;;;1.63;;
39190;SDS011;24916;51.676;6.614;2023-02-28T14:51:09;3.75;;;1.50;;
39190;SDS011;24916;51.676;6.614;2023-02-28T14:53:35;3.88;;;1.50;;
39190;SDS011;24916;51.676;6.614;2023-02-28T14:56:01;3.00;;;1.70;;
39190;SDS011;24916;51.676;6.614;2023-02-28T14:58:27;2.78;;;1.48;;
39190;SDS011;24916;51.676;6.614;2023-02-28T15:00:54;4.25;;;2.03;;
39190;SDS011;24916;51.676;6.614;2023-02-28T15:05:55;2.15;;;1.42;;
39190;SDS011;24916;51.676;6.614;2023-02-28T15:10:49;3.60;;;1.90;;
39190;SDS011;24916;51.676;6.614;2023-02-28T15:13:15;4.95;;;1.52;;
39190;SDS011;24916;51.676;6.614;2023-02-28T15:15:54;3.05;;;1.48;;
39190;SDS011;24916;51.676;6.614;2023-02-28T15:20:46;4.53;;;2.20;;
39190;SDS011;24916;51.676;6.614;2023-02-28T15:23:11;3.17;;;1.73;;
39190;SDS011;24916;51.676;6.614;2023-02-28T15:25:37;4.00;;;2.00;;
39190;SDS011;24916;51.676;6.614;2023-02-28T15:28:02;3.80;;;2.05;;
39190;SDS011;24916;51.676;6.614;2023-02-28T15:30:28;2.55;;;1.63;;
39190;SDS011;24916;51.676;6.614;2023-02-28T15:35:38;3.40;;;2.00;;
39190;SDS011;24916;51.676;6.614;2023-02-28T15:38:12;3.70;;;1.98;;
39190;SDS011;24916;51.676;6.614;2023-02-28T15:40:41;3.53;;;2.00;;
39190;SDS011;24916;51.676;6.614;2023-02-28T15:45:33;2.83;;;1.58;;
39190;SDS011;24916;51.676;6.614;2023-02-28T15:48:02;2.78;;;1.88;;
39190;SDS011;24916;51.676;6.614;2023-02-28T15:50:27;4.47;;;2.22;;
39190;SDS011;24916;51.676;6.614;2023-02-28T15:52:53;3.20;;;1.98;;
39190;SDS011;24916;51.676;6.614;2023-02-28T15:55:22;3.17;;;1.60;;
39190;SDS011;24916;51.676;6.614;2023-02-28T15:57:53;4.38;;;2.20;;
39190;SDS011;24916;51.676;6.614;2023-02-28T16:00:21;2.70;;;1.73;;
39190;SDS011;24916;51.676;6.614;2023-02-28T16:02:46;4.88;;;1.85;;
39190;SDS011;24916;51.676;6.614;2023-02-28T16:07:38;5.93;;;2.55;;
39190;SDS011;24916;51.676;6.614;2023-02-28T16:10:04;4.95;;;2.45;;
39190;SDS011;24916;51.676;6.614;2023-02-28T16:12:30;3.97;;;2.50;;
39190;SDS011;24916;51.676;6.614;2023-02-28T16:14:57;3.75;;;1.98;;
39190;SDS011;24916;51.676;6.614;2023-02-28T16:17:26;7.03;;;2.28;;
39190;SDS011;24916;51.676;6.614;2023-02-28T16:19:52;3.88;;;1.60;;
39190;SDS011;24916;51.676;6.614;2023-02-28T16:22:18;6.00;;;2.08;;
39190;SDS011;24916;51.676;6.614;2023-02-28T16:24:43;3.20;;;2.05;;
39190;SDS011;24916;51.676;6.614;2023-02-28T16:27:19;3.67;;;1.90;;
39190;SDS011;24916;51.676;6.614;2023-02-28T16:29:45;4.63;;;1.98;;
39190;SDS011;24916;51.676;6.614;2023-02-28T16:32:11;3.55;;;2.10;;
39190;SDS011;24916;51.676;6.614;2023-02-28T16:34:38;6.13;;;2.40;;
39190;SDS011;24916;51.676;6.614;2023-02-28T16:37:04;3.75;;;1.60;;
39190;SDS011;24916;51.676;6.614;2023-02-28T16:39:34;3.60;;;1.90;;
39190;SDS011;24916;51.676;6.614;2023-02-28T16:42:00;4.07;;;1.80;;
39190;SDS011;24916;51.676;6.614;2023-02-28T16:44:29;4.13;;;2.35;;
39190;SDS011;24916;51.676;6.614;2023-02-28T16:46:59;3.53;;;2.35;;
39190;SDS011;24916;51.676;6.614;2023-02-28T16:49:25;4.57;;;2.03;;
39190;SDS011;24916;51.676;6.614;2023-02-28T16:51:50;5.43;;;2.33;;
39190;SDS011;24916;51.676;6.614;2023-02-28T16:54:15;3.67;;;1.90;;
39190;SDS011;24916;51.676;6.614;2023-02-28T16:56:42;4.40;;;2.28;;
39190;SDS011;24916;51.676;6.614;2023-02-28T16:59:08;5.00;;;3.08;;
39190;SDS011;24916;51.676;6.614;2023-02-28T17:01:33;4.68;;;2.80;;
39190;SDS011;24916;51.676;6.614;2023-02-28T17:03:59;5.10;;;2.88;;
39190;SDS011;24916;51.676;6.614;2023-02-28T17:06:25;11.20;;;6.72;;
39190;SDS011;24916;51.676;6.614;2023-02-28T17:08:52;10.73;;;5.85;;
39190;SDS011;24916;51.676;6.614;2023-02-28T17:11:18;13.68;;;5.05;;
39190;SDS011;24916;51.676;6.614;2023-02-28T17:13:43;9.43;;;5.68;;
39190;SDS011;24916;51.676;6.614;2023-02-28T17:16:21;7.28;;;4.88;;
39190;SDS011;24916;51.676;6.614;2023-02-28T17:18:47;12.40;;;7.97;;
39190;SDS011;24916;51.676;6.614;2023-02-28T17:21:13;9.32;;;5.82;;
39190;SDS011;24916;51.676;6.614;2023-02-28T17:23:39;7.78;;;3.85;;
39190;SDS011;24916;51.676;6.614;2023-02-28T17:26:04;8.52;;;5.50;;
39190;SDS011;24916;51.676;6.614;2023-02-28T17:28:31;7.25;;;3.92;;
39190;SDS011;24916;51.676;6.614;2023-02-28T17:30:56;6.57;;;4.03;;
39190;SDS011;24916;51.676;6.614;2023-02-28T17:33:22;5.60;;;3.33;;
39190;SDS011;24916;51.676;6.614;2023-02-28T17:35:47;7.38;;;3.92;;